Startpagina
METAR-TAF:

METAR-TAF

Vliegvelden :

Al-Ubayyid, Soedan

breedte: 13-10N, lengte: 030-14E, hoogte: 574 m

Actueel weer

Dit bericht is 5 uur en het 20 minuten geleden gemaakt, om 20:00 UTC
Wind 14 kt uit het noorden
Temperatuur 20°C
Vochtigheid 23%
Druk 1017 hPa
Zicht 10 km of meer
geen wolken onder 1500 m en geen cumulonimbus

METAR: HSOB 242000Z 35014KT CAVOK 20/M02 Q1017

Tijdstip: 03:20 (01:20 UTC)

Verwachting

Dit bericht is 2 uur en het 20 minuten geleden gemaakt, om 23:00 UTC
Verwachting geldig van 25 om 00 UTC tot 26 om 06 UTC
Wind 10 kt uit het noorden met uitschieters tot 24 kt
Zicht 10 km of meer
geen wolken onder 1500 m en geen cumulonimbus
Tijdelijke
van 25 om 00 UTC tot 25 om 06 UTC
Zicht: 6000 m
Verspreide wolken op 14000 ft

TAF: HSOB 242300Z 2500/2606 35010G24KT CAVOK TEMPO 2500/2506 6000 SCT140

Waarnemingen en weersverwachtingen van meer dan 4000 vliegvelden (METAR en TAF).

De beschikbare stations zijn de gele en rode punten op de kaart.

Ga met uw muis naar het station om de naam te zien.

Klik dan om waarnemingen en weersverwachtingen te zien.

kaart wijzigen: klik op de groene knoppen met een zwart kruis om in te zoomen, op de groene knop met een streepje om uit te zoomen of op de groene pijlen voor aangrenzende kaarten.


METAR-TAF: